Time;durP1;ratioP1;P1;durP2;ratioP2;P2;SDS_P1;SDS_P2;PMS_P1;PMS_P2;Temp;Humidity;BMP_temperature;BMP_pressure;BME280_temperature;BME280_humidity;BME280_pressure;Samples;Min_cycle;Max_cycle;Signal;HPM_P1;HPM_P2
2023/03/15 00:02:17;;;;;;;4.68;1.20;;;;;;;4.39;100.00;101141.44;5214125;28;20122;-72
2023/03/15 00:04:49;;;;;;;3.67;1.52;;;;;;;4.44;100.00;101141.16;5213374;28;20042;-71
2023/03/15 00:07:24;;;;;;;2.33;0.93;;;;;;;4.37;100.00;101132.03;5214573;28;20464;-70
2023/03/15 00:09:56;;;;;;;3.08;1.08;;;;;;;4.45;100.00;101137.66;5214387;28;20491;-71
2023/03/15 00:12:27;;;;;;;5.72;1.40;;;;;;;4.37;100.00;101116.47;5214556;28;20025;-71
2023/03/15 00:14:59;;;;;;;3.72;1.30;;;;;;;4.44;100.00;101125.59;5214318;28;20508;-71
2023/03/15 00:17:33;;;;;;;2.58;1.10;;;;;;;4.41;100.00;101130.13;5214228;28;20136;-71
2023/03/15 00:20:05;;;;;;;3.33;1.20;;;;;;;4.43;100.00;101133.44;5212879;28;20034;-72
2023/03/15 00:22:37;;;;;;;3.15;1.10;;;;;;;4.45;100.00;101135.06;5215055;28;20080;-71
2023/03/15 00:25:08;;;;;;;2.72;1.23;;;;;;;4.48;100.00;101136.66;5214403;28;20036;-72
2023/03/15 00:27:40;;;;;;;2.75;0.88;;;;;;;4.48;100.00;101137.50;5214465;28;20037;-71
2023/03/15 00:30:11;;;;;;;3.17;1.10;;;;;;;4.48;100.00;101134.91;5213473;28;20120;-72
2023/03/15 00:32:42;;;;;;;4.22;1.60;;;;;;;4.54;100.00;101137.13;5214102;28;20025;-72
2023/03/15 00:35:17;;;;;;;4.43;1.20;;;;;;;4.57;100.00;101152.53;5213134;28;20108;-71
2023/03/15 00:37:53;;;;;;;5.10;1.35;;;;;;;4.55;100.00;101144.03;5213657;28;20022;-71
2023/03/15 00:40:24;;;;;;;5.47;1.40;;;;;;;4.66;100.00;101146.03;5213959;28;20057;-71
2023/03/15 00:42:56;;;;;;;6.15;1.88;;;;;;;4.59;100.00;101148.13;5212649;28;20061;-71
2023/03/15 00:45:28;;;;;;;2.47;1.02;;;;;;;4.69;100.00;101138.06;5211720;28;20402;-72
2023/03/15 00:47:59;;;;;;;2.85;1.20;;;;;;;4.63;100.00;101134.06;5212583;28;20065;-71
2023/03/15 00:50:30;;;;;;;3.13;1.35;;;;;;;4.64;100.00;101134.88;5213073;28;20065;-71
2023/03/15 00:53:01;;;;;;;4.85;1.42;;;;;;;4.62;100.00;101140.16;5213556;28;20016;-72
2023/03/15 00:55:34;;;;;;;3.70;1.45;;;;;;;4.57;100.00;101130.94;5212149;28;20888;-71
2023/03/15 00:58:05;;;;;;;4.45;1.20;;;;;;;4.59;100.00;101140.34;5214279;28;20030;-71
2023/03/15 01:00:37;;;;;;;3.97;1.45;;;;;;;4.62;100.00;101136.72;5212134;28;20033;-72
2023/03/15 01:03:08;;;;;;;3.22;1.30;;;;;;;4.64;100.00;101143.50;5214728;28;20411;-72
2023/03/15 01:05:40;;;;;;;3.13;1.33;;;;;;;4.67;100.00;101145.09;5213561;28;20476;-72
2023/03/15 01:08:11;;;;;;;3.80;1.40;;;;;;;4.68;100.00;101143.34;5212931;28;20034;-71
2023/03/15 01:10:42;;;;;;;6.40;1.70;;;;;;;4.68;100.00;101145.94;5212643;28;20033;-71
2023/03/15 01:13:14;;;;;;;4.07;1.70;;;;;;;4.58;100.00;101146.44;5213359;28;20071;-71
2023/03/15 01:15:46;;;;;;;5.85;2.42;;;;;;;4.67;100.00;101137.31;5213270;28;20088;-71
2023/03/15 01:18:17;;;;;;;5.95;2.30;;;;;;;4.69;100.00;101138.06;5211935;28;20088;-71
2023/03/15 01:20:49;;;;;;;10.02;3.38;;;;;;;4.62;100.00;101149.69;5213000;28;20689;-71
2023/03/15 01:23:20;;;;;;;7.72;3.70;;;;;;;4.67;100.00;101150.28;5212978;28;20120;-72
2023/03/15 01:25:52;;;;;;;6.72;4.60;;;;;;;4.66;100.00;101164.19;5212423;28;20509;-71
2023/03/15 01:28:23;;;;;;;8.93;4.20;;;;;;;4.67;100.00;101158.06;5213173;28;20108;-71
2023/03/15 01:30:55;;;;;;;9.77;5.95;;;;;;;4.61;100.00;101167.00;5212666;28;20494;-71
2023/03/15 01:33:27;;;;;;;7.18;5.63;;;;;;;4.59;100.00;101168.03;5211860;28;20184;-71
2023/03/15 01:36:04;;;;;;;7.65;5.93;;;;;;;4.62;100.00;101173.91;5213030;28;20033;-71
2023/03/15 01:38:36;;;;;;;8.23;6.00;;;;;;;4.53;100.00;101164.00;5212712;28;20040;-72
2023/03/15 01:41:09;;;;;;;6.80;5.80;;;;;;;4.62;100.00;101175.63;5212695;28;20022;-71
2023/03/15 01:43:47;;;;;;;8.23;6.53;;;;;;;4.56;100.00;101179.41;5209613;28;20026;-71
2023/03/15 01:46:18;;;;;;;8.18;6.60;;;;;;;4.60;100.00;101182.69;5212546;28;20025;-71
2023/03/15 01:49:01;;;;;;;8.17;6.93;;;;;;;4.63;100.00;101174.75;5211084;28;20424;-70
2023/03/15 01:51:41;;;;;;;8.25;7.45;;;;;;;4.60;100.00;101167.13;5211247;28;20307;-71
2023/03/15 01:54:36;;;;;;;9.27;7.18;;;;;;;4.52;100.00;101177.06;5212829;28;20037;-71
2023/03/15 01:57:21;;;;;;;9.35;7.43;;;;;;;4.70;100.00;101176.06;5207161;28;20038;-71
2023/03/15 02:00:01;;;;;;;8.13;7.32;;;;;;;4.62;100.00;101181.69;5211131;28;20022;-71
2023/03/15 02:02:33;;;;;;;9.88;8.38;;;;;;;4.48;100.00;101185.94;5212313;28;20113;-71
2023/03/15 02:05:10;;;;;;;9.35;8.38;;;;;;;4.60;100.00;101196.50;5212475;28;20120;-71
2023/03/15 02:07:48;;;;;;;9.73;8.57;;;;;;;4.50;100.00;101195.31;5215612;28;20026;-71
2023/03/15 02:10:41;;;;;;;9.45;8.52;;;;;;;4.69;100.00;101202.09;5216792;28;20036;-71
2023/03/15 02:13:17;;;;;;;9.55;8.65;;;;;;;4.72;100.00;101209.72;5216266;28;20053;-72
2023/03/15 02:15:52;;;;;;;9.77;8.70;;;;;;;4.52;100.00;101205.63;5216234;28;20030;-71
2023/03/15 02:18:24;;;;;;;12.32;9.18;;;;;;;4.53;100.00;101204.69;5216710;28;20034;-72
2023/03/15 02:21:01;;;;;;;11.90;8.82;;;;;;;4.56;100.00;101215.75;5215172;28;20030;-71
2023/03/15 02:23:33;;;;;;;11.52;10.32;;;;;;;4.33;100.00;101216.13;5215622;28;20068;-71
2023/03/15 02:26:31;;;;;;;11.65;10.50;;;;;;;4.66;100.00;101205.72;5214849;28;20021;-71
2023/03/15 02:29:03;;;;;;;11.65;10.45;;;;;;;4.44;100.00;101207.78;5216485;28;20064;-71
2023/03/15 02:31:36;;;;;;;12.68;11.38;;;;;;;4.45;100.00;101206.88;5215146;28;20022;-71
2023/03/15 02:34:08;;;;;;;11.95;10.85;;;;;;;4.49;100.00;101213.56;5216055;28;20022;-72
2023/03/15 02:36:39;;;;;;;11.13;10.02;;;;;;;4.46;100.00;101216.31;5216169;28;20021;-71
2023/03/15 02:39:19;;;;;;;10.57;9.50;;;;;;;4.66;100.00;101210.03;5216251;28;20034;-72
2023/03/15 02:41:54;;;;;;;8.88;7.97;;;;;;;4.51;100.00;101217.75;5214949;28;20117;-72
2023/03/15 02:44:33;;;;;;;9.32;7.57;;;;;;;4.56;100.00;101217.50;5215747;28;20395;-72
2023/03/15 02:47:09;;;;;;;9.45;8.45;;;;;;;4.54;100.00;101221.94;5216842;28;20164;-71
2023/03/15 02:49:43;;;;;;;11.13;8.88;;;;;;;4.52;100.00;101234.16;5215780;28;20061;-71
2023/03/15 02:52:15;;;;;;;9.90;8.80;;;;;;;4.44;100.00;101225.94;5215471;28;20061;-72
2023/03/15 02:54:46;;;;;;;8.63;7.75;;;;;;;4.33;100.00;101226.50;5216487;28;20072;-71
2023/03/15 02:57:18;;;;;;;8.77;7.97;;;;;;;4.33;100.00;101232.53;5215423;28;20048;-71
2023/03/15 02:59:50;;;;;;;8.93;7.75;;;;;;;4.33;100.00;101234.28;5215316;28;20041;-71
2023/03/15 03:02:22;;;;;;;8.82;8.02;;;;;;;4.26;100.00;101238.13;5214365;28;20480;-71
2023/03/15 03:04:54;;;;;;;8.73;7.93;;;;;;;4.31;100.00;101236.94;5216176;28;20029;-71
2023/03/15 03:07:25;;;;;;;8.93;8.10;;;;;;;4.26;100.00;101254.50;5216022;28;20033;-71
2023/03/15 03:09:56;;;;;;;8.30;7.60;;;;;;;4.27;100.00;101255.34;5215241;28;20140;-71
2023/03/15 03:12:27;;;;;;;9.10;8.20;;;;;;;4.34;100.00;101257.53;5216229;28;20017;-71
2023/03/15 03:14:59;;;;;;;9.45;8.40;;;;;;;4.31;100.00;101270.66;5215428;28;20026;-71
2023/03/15 03:17:30;;;;;;;9.07;8.18;;;;;;;4.27;100.00;101271.75;5215112;28;20028;-71
2023/03/15 03:20:11;;;;;;;9.05;8.10;;;;;;;4.39;100.00;101278.03;5215107;28;20103;-71
2023/03/15 03:22:43;;;;;;;9.88;8.57;;;;;;;4.18;100.00;101274.00;5214246;28;20030;-71
2023/03/15 03:25:15;;;;;;;8.98;8.07;;;;;;;4.14;100.00;101286.28;5215155;28;20072;-71
2023/03/15 03:27:46;;;;;;;9.45;8.55;;;;;;;4.11;100.00;101289.84;5215018;28;20160;-71
2023/03/15 03:30:18;;;;;;;9.63;8.73;;;;;;;4.12;100.00;101294.09;5215419;28;20022;-72
2023/03/15 03:32:50;;;;;;;9.35;8.45;;;;;;;4.02;100.00;101285.13;5213986;28;20021;-71
2023/03/15 03:35:21;;;;;;;9.52;8.63;;;;;;;4.05;100.00;101290.19;5215831;28;20026;-71
2023/03/15 03:37:52;;;;;;;8.73;7.93;;;;;;;4.00;100.00;101283.53;5215245;28;20054;-72
2023/03/15 03:40:23;;;;;;;9.88;8.90;;;;;;;3.97;100.00;101301.81;5215277;28;20038;-71
2023/03/15 03:42:55;;;;;;;9.40;8.50;;;;;;;3.87;100.00;101310.06;5214333;28;20034;-71
2023/03/15 03:45:26;;;;;;;8.95;8.05;;;;;;;3.92;100.00;101309.00;5214875;28;20173;-71
2023/03/15 03:47:57;;;;;;;9.43;8.45;;;;;;;3.86;100.00;101312.72;5213441;28;20128;-72
2023/03/15 03:50:30;;;;;;;9.43;8.52;;;;;;;3.85;100.00;101319.66;5214506;28;20399;-72
2023/03/15 03:53:01;;;;;;;9.32;8.43;;;;;;;3.84;100.00;101318.00;5214797;28;20010;-72
2023/03/15 03:55:33;;;;;;;9.25;8.32;;;;;;;3.78;100.00;101315.69;5214560;28;20033;-72
2023/03/15 03:58:04;;;;;;;9.57;8.68;;;;;;;3.70;100.00;101309.22;5215588;28;20112;-72
2023/03/15 04:00:36;;;;;;;9.05;8.18;;;;;;;3.72;100.00;101325.53;5215011;28;20041;-72
2023/03/15 04:03:07;;;;;;;9.15;8.25;;;;;;;3.70;100.00;101329.94;5214701;28;20026;-72
2023/03/15 04:05:40;;;;;;;9.38;8.45;;;;;;;3.60;100.00;101334.75;5214070;28;20128;-72
2023/03/15 04:08:11;;;;;;;9.13;8.20;;;;;;;3.66;100.00;101337.84;5214538;28;20037;-72
2023/03/15 04:10:43;;;;;;;9.35;8.43;;;;;;;3.62;100.00;101338.09;5212770;28;20089;-72
2023/03/15 04:13:14;;;;;;;8.98;8.10;;;;;;;3.59;100.00;101343.41;5214241;28;20042;-72
2023/03/15 04:15:46;;;;;;;9.70;8.25;;;;;;;3.52;100.00;101344.59;5214658;28;20119;-72
2023/03/15 04:18:17;;;;;;;9.30;8.40;;;;;;;3.49;100.00;101355.13;5213282;28;20034;-72
2023/03/15 04:20:53;;;;;;;9.95;8.90;;;;;;;3.45;100.00;101354.44;5213095;28;20060;-72
2023/03/15 04:23:24;;;;;;;10.30;9.23;;;;;;;3.40;100.00;101374.50;5213132;28;20030;-72
2023/03/15 04:25:56;;;;;;;9.73;8.55;;;;;;;3.45;100.00;101369.97;5214108;28;20046;-72
2023/03/15 04:28:29;;;;;;;9.75;7.97;;;;;;;3.34;100.00;101370.47;5213426;28;20412;-72
2023/03/15 04:31:00;;;;;;;8.55;7.65;;;;;;;3.32;100.00;101369.69;5212973;28;20085;-72
2023/03/15 04:33:31;;;;;;;8.85;7.95;;;;;;;3.30;100.00;101381.03;5213912;28;20480;-72
2023/03/15 04:36:03;;;;;;;8.85;7.95;;;;;;;3.28;100.00;101381.09;5213829;28;20030;-72
2023/03/15 04:38:34;;;;;;;8.85;7.95;;;;;;;3.23;100.00;101387.41;5212489;28;20514;-72
2023/03/15 04:41:09;;;;;;;8.98;8.07;;;;;;;3.28;100.00;101383.69;5213426;28;20061;-72
2023/03/15 04:43:41;;;;;;;8.55;7.75;;;;;;;3.21;100.00;101391.81;5213548;28;20026;-72
2023/03/15 04:46:12;;;;;;;8.85;7.70;;;;;;;3.14;100.00;101391.22;5212746;28;20040;-72
2023/03/15 04:48:43;;;;;;;10.77;8.35;;;;;;;3.16;100.00;101398.03;5213776;28;20460;-72
2023/03/15 04:51:15;;;;;;;9.73;8.43;;;;;;;3.15;100.00;101398.94;5212326;28;20176;-72
2023/03/15 04:53:46;;;;;;;9.55;8.55;;;;;;;3.09;100.00;101398.38;5212480;28;20036;-72
2023/03/15 04:56:17;;;;;;;9.93;8.43;;;;;;;3.01;100.00;101380.59;5212738;28;20030;-72
2023/03/15 04:58:49;;;;;;;9.07;7.55;;;;;;;3.03;100.00;101402.09;5213260;28;20022;-72
2023/03/15 05:01:28;;;;;;;8.40;7.05;;;;;;;3.20;100.00;101400.50;5212812;28;20040;-72
2023/03/15 05:03:59;;;;;;;8.85;7.95;;;;;;;3.05;100.00;101404.59;5213262;28;20033;-72
2023/03/15 05:06:31;;;;;;;7.85;7.05;;;;;;;3.06;100.00;101396.75;5213191;28;20034;-72
2023/03/15 05:09:02;;;;;;;7.57;6.78;;;;;;;3.13;100.00;101405.94;5213757;28;20029;-72
2023/03/15 05:11:34;;;;;;;8.60;7.18;;;;;;;3.11;100.00;101407.75;5213129;28;20063;-72
2023/03/15 05:14:05;;;;;;;8.25;7.13;;;;;;;3.08;100.00;101420.00;5213992;28;20101;-72
2023/03/15 05:16:36;;;;;;;7.68;6.97;;;;;;;3.04;100.00;101411.53;5213532;28;20029;-72
2023/03/15 05:19:08;;;;;;;7.40;6.55;;;;;;;3.08;100.00;101418.25;5213617;28;20037;-72
2023/03/15 05:21:39;;;;;;;8.45;7.55;;;;;;;2.98;100.00;101429.06;5213948;28;20364;-72
2023/03/15 05:24:10;;;;;;;8.02;6.65;;;;;;;3.00;100.00;101424.69;5212644;28;20033;-72
2023/03/15 05:26:45;;;;;;;7.93;6.97;;;;;;;2.93;100.00;101432.69;5211151;28;20088;-72
2023/03/15 05:29:16;;;;;;;7.43;6.68;;;;;;;2.90;100.00;101435.41;5213110;28;20041;-72
2023/03/15 05:31:48;;;;;;;9.63;7.03;;;;;;;2.92;100.00;101440.53;5212054;28;20033;-72
2023/03/15 05:34:23;;;;;;;10.27;7.93;;;;;;;2.81;100.00;101435.81;5213840;28;20036;-72
2023/03/15 05:36:54;;;;;;;8.02;7.22;;;;;;;2.80;100.00;101444.47;5212301;28;20565;-73
2023/03/15 05:39:25;;;;;;;8.35;7.10;;;;;;;2.80;100.00;101443.63;5213468;28;20037;-72
2023/03/15 05:41:56;;;;;;;7.68;6.85;;;;;;;2.79;100.00;101445.38;5212406;28;20029;-72
2023/03/15 05:44:28;;;;;;;8.10;7.10;;;;;;;2.78;100.00;101445.47;5212478;28;20479;-72
2023/03/15 05:46:59;;;;;;;8.88;7.40;;;;;;;2.78;100.00;101454.06;5212492;28;20472;-72
2023/03/15 05:49:30;;;;;;;8.52;7.72;;;;;;;2.74;100.00;101449.94;5212977;28;20519;-72
2023/03/15 05:52:02;;;;;;;9.57;8.05;;;;;;;2.73;100.00;101449.97;5212507;28;20025;-72
2023/03/15 05:54:33;;;;;;;8.95;7.72;;;;;;;2.82;100.00;101452.19;5212827;28;20030;-72
2023/03/15 05:57:04;;;;;;;9.27;7.57;;;;;;;2.88;100.00;101465.72;5213240;28;20030;-71
2023/03/15 05:59:36;;;;;;;9.43;7.82;;;;;;;2.72;100.00;101459.50;5211946;28;20502;-72
2023/03/15 06:02:07;;;;;;;8.77;7.55;;;;;;;2.73;100.00;101478.44;5211287;28;20084;-71
2023/03/15 06:04:38;;;;;;;7.93;7.07;;;;;;;2.59;100.00;101459.16;5213223;28;20057;-71
2023/03/15 06:07:10;;;;;;;9.50;7.63;;;;;;;2.70;100.00;101486.34;5211962;28;20041;-71
2023/03/15 06:09:41;;;;;;;8.73;7.43;;;;;;;2.75;100.00;101487.81;5213828;28;20112;-71
2023/03/15 06:12:12;;;;;;;10.00;8.43;;;;;;;2.75;100.00;101481.81;5214663;28;20032;-72
2023/03/15 06:14:44;;;;;;;9.27;7.25;;;;;;;2.78;100.00;101487.69;5213684;28;20029;-72
2023/03/15 06:17:15;;;;;;;7.82;7.03;;;;;;;2.75;100.00;101487.00;5214489;28;20026;-71
2023/03/15 06:19:47;;;;;;;9.43;8.25;;;;;;;2.75;100.00;101487.81;5212858;28;20029;-71
2023/03/15 06:22:19;;;;;;;8.70;7.80;;;;;;;2.83;100.00;101496.09;5207726;28;20041;-72
2023/03/15 06:24:50;;;;;;;10.57;8.10;;;;;;;2.88;100.00;101512.28;5211531;28;20395;-72
2023/03/15 06:27:22;;;;;;;9.15;8.18;;;;;;;2.88;100.00;101509.72;5209672;28;20037;-72
2023/03/15 06:29:53;;;;;;;9.18;7.78;;;;;;;3.02;100.00;101516.88;5212057;28;20033;-72
2023/03/15 06:32:25;;;;;;;10.23;9.15;;;;;;;3.11;100.00;101524.25;5213195;28;20033;-72
2023/03/15 06:34:56;;;;;;;30.42;9.38;;;;;;;3.15;100.00;101531.00;5213535;28;20026;-72
2023/03/15 06:37:27;;;;;;;10.43;8.68;;;;;;;3.21;100.00;101539.38;5212935;28;20021;-72
2023/03/15 06:39:59;;;;;;;12.23;9.23;;;;;;;3.20;100.00;101533.38;5212289;28;20042;-72
2023/03/15 06:42:30;;;;;;;10.20;9.10;;;;;;;3.30;100.00;101541.59;5213464;28;20511;-72
2023/03/15 06:45:02;;;;;;;12.60;9.20;;;;;;;3.36;100.00;101551.69;5210098;28;20040;-72
2023/03/15 06:47:33;;;;;;;11.52;9.50;;;;;;;3.40;100.00;101561.84;5212247;28;20036;-72
2023/03/15 06:50:05;;;;;;;13.45;9.82;;;;;;;3.41;100.00;101560.13;5211661;28;20041;-72
2023/03/15 06:52:37;;;;;;;10.65;9.02;;;;;;;3.32;100.00;101550.97;5211465;28;20101;-72
2023/03/15 06:55:11;;;;;;;11.15;10.00;;;;;;;3.42;100.00;101562.63;5216575;28;20041;-72
2023/03/15 06:57:43;;;;;;;10.95;9.80;;;;;;;3.47;100.00;101567.59;5215423;28;20034;-72
2023/03/15 07:00:16;;;;;;;12.32;9.70;;;;;;;3.53;100.00;101575.13;5215629;28;20079;-72
2023/03/15 07:02:47;;;;;;;10.25;9.25;;;;;;;3.59;100.00;101574.00;5214966;28;20499;-72
2023/03/15 07:05:18;;;;;;;11.85;9.95;;;;;;;3.61;100.00;101577.38;5215297;28;20017;-72
2023/03/15 07:07:50;;;;;;;13.27;10.00;;;;;;;3.56;100.00;101584.47;5217269;28;20017;-72
2023/03/15 07:10:21;;;;;;;11.13;9.68;;;;;;;3.56;100.00;101582.75;5216908;28;20033;-72
2023/03/15 07:12:52;;;;;;;13.93;9.63;;;;;;;3.53;100.00;101588.06;5216104;28;20052;-72
2023/03/15 07:15:23;;;;;;;13.30;10.55;;;;;;;3.58;100.00;101591.28;5215899;28;20029;-72
2023/03/15 07:17:55;;;;;;;15.40;10.30;;;;;;;3.59;100.00;101599.91;5213839;28;20025;-72
2023/03/15 07:20:26;;;;;;;10.93;9.65;;;;;;;3.67;100.00;101600.41;5211793;28;20029;-72
2023/03/15 07:22:57;;;;;;;12.98;10.70;;;;;;;3.68;100.00;101609.03;5213309;28;20400;-72
2023/03/15 07:25:29;;;;;;;11.18;10.02;;;;;;;3.71;100.00;101607.13;5215819;28;20387;-72
2023/03/15 07:28:00;;;;;;;12.10;10.50;;;;;;;3.88;100.00;101620.19;5213980;28;20021;-72
2023/03/15 07:30:31;;;;;;;12.02;10.68;;;;;;;3.93;100.00;101622.59;5214474;28;20025;-72
2023/03/15 07:33:03;;;;;;;12.85;10.57;;;;;;;3.96;100.00;101619.03;5215001;28;20119;-72
2023/03/15 07:35:34;;;;;;;14.40;9.90;;;;;;;3.99;100.00;101624.91;5215075;28;20030;-72
2023/03/15 07:38:05;;;;;;;13.90;10.05;;;;;;;3.98;100.00;101638.78;5215254;28;20161;-72
2023/03/15 07:40:36;;;;;;;12.30;9.27;;;;;;;4.07;100.00;101630.59;5215795;28;20029;-72
2023/03/15 07:43:08;;;;;;;15.10;9.27;;;;;;;4.06;100.00;101635.84;5215052;28;20077;-72
2023/03/15 07:45:39;;;;;;;10.75;8.70;;;;;;;4.16;100.00;101637.09;5213618;28;20422;-72
2023/03/15 07:48:10;;;;;;;9.48;8.52;;;;;;;4.13;100.00;101650.22;5212946;28;20049;-72
2023/03/15 07:50:42;;;;;;;12.68;8.77;;;;;;;4.14;100.00;101652.75;5213561;28;20045;-72
2023/03/15 07:53:13;;;;;;;12.70;8.73;;;;;;;4.24;100.00;101660.94;5213647;28;20474;-72
2023/03/15 07:55:46;;;;;;;12.15;8.95;;;;;;;4.33;100.00;101662.28;5214569;28;20032;-72
2023/03/15 07:58:18;;;;;;;10.35;8.52;;;;;;;4.38;100.00;101666.34;5213100;28;20156;-72
2023/03/15 08:00:49;;;;;;;10.75;7.90;;;;;;;4.35;100.00;101663.03;5215307;28;20109;-72
2023/03/15 08:03:21;;;;;;;11.57;7.60;;;;;;;4.47;100.00;101679.81;5215288;28;20518;-72
2023/03/15 08:05:52;;;;;;;10.35;7.43;;;;;;;4.48;100.00;101684.09;5212600;28;20075;-72
2023/03/15 08:08:24;;;;;;;11.45;8.48;;;;;;;4.51;100.00;101677.03;5213192;28;20059;-72
2023/03/15 08:10:55;;;;;;;11.48;7.55;;;;;;;4.59;100.00;101687.88;5213575;28;20071;-72
2023/03/15 08:13:27;;;;;;;8.93;7.03;;;;;;;4.53;100.00;101682.97;5215085;28;20072;-72
2023/03/15 08:15:58;;;;;;;8.38;7.00;;;;;;;4.67;100.00;101692.72;5215127;28;20029;-72
2023/03/15 08:18:29;;;;;;;10.55;6.95;;;;;;;4.78;100.00;101695.66;5214445;28;20033;-72
2023/03/15 08:21:01;;;;;;;11.30;6.68;;;;;;;4.89;100.00;101697.75;5211051;28;20026;-72
2023/03/15 08:23:32;;;;;;;8.90;6.35;;;;;;;4.94;100.00;101695.78;5212576;28;20033;-72
2023/03/15 08:26:04;;;;;;;9.88;5.40;;;;;;;5.01;100.00;101696.31;5213956;28;20041;-72
2023/03/15 08:28:35;;;;;;;10.45;5.70;;;;;;;5.09;100.00;101709.78;5212040;28;20117;-72
2023/03/15 08:31:08;;;;;;;6.75;5.35;;;;;;;5.17;100.00;101714.59;5214772;28;20026;-72
2023/03/15 08:33:39;;;;;;;9.20;5.88;;;;;;;5.27;100.00;101711.50;5214557;28;20033;-72
2023/03/15 08:36:11;;;;;;;9.07;5.40;;;;;;;5.27;100.00;101726.25;5213703;28;20038;-72
2023/03/15 08:38:42;;;;;;;7.78;4.65;;;;;;;5.37;100.00;101724.84;5211856;28;20463;-72
2023/03/15 08:41:14;;;;;;;8.93;5.28;;;;;;;5.36;100.00;101726.63;5214279;28;20022;-72
2023/03/15 08:43:45;;;;;;;6.68;4.82;;;;;;;5.40;100.00;101726.47;5214348;28;20034;-72
2023/03/15 08:46:16;;;;;;;10.18;5.13;;;;;;;5.51;100.00;101734.59;5214376;28;20116;-71
2023/03/15 08:48:48;;;;;;;5.85;4.88;;;;;;;5.44;100.00;101739.25;5211957;28;20038;-72
2023/03/15 08:51:20;;;;;;;6.90;4.13;;;;;;;5.67;100.00;101729.47;5214684;28;20112;-72
2023/03/15 08:53:52;;;;;;;6.07;4.53;;;;;;;5.84;100.00;101739.88;5212775;28;20022;-72
2023/03/15 08:56:24;;;;;;;8.02;4.50;;;;;;;5.74;100.00;101728.25;5213299;28;20041;-72
2023/03/15 08:58:55;;;;;;;6.97;4.10;;;;;;;5.97;100.00;101738.34;5207557;28;20030;-72
2023/03/15 09:01:29;;;;;;;7.82;3.95;;;;;;;5.96;100.00;101741.03;5214396;28;20176;-72
2023/03/15 09:04:01;;;;;;;6.90;4.20;;;;;;;5.99;100.00;101746.94;5212141;28;20113;-72
2023/03/15 09:06:32;;;;;;;8.43;3.75;;;;;;;6.08;100.00;101745.59;5212899;28;20026;-72
2023/03/15 09:09:03;;;;;;;5.35;3.53;;;;;;;6.17;100.00;101747.72;5212976;28;20029;-72
2023/03/15 09:11:35;;;;;;;5.45;3.40;;;;;;;6.22;100.00;101745.75;5214853;28;20087;-72
2023/03/15 09:14:06;;;;;;;6.55;3.17;;;;;;;6.13;100.00;101747.97;5213049;28;20025;-72
2023/03/15 09:16:37;;;;;;;8.48;3.08;;;;;;;6.08;100.00;101759.44;5213483;28;20112;-72
2023/03/15 09:19:08;;;;;;;4.75;2.42;;;;;;;6.09;100.00;101753.31;5214626;28;20025;-72
2023/03/15 09:21:40;;;;;;;6.20;2.70;;;;;;;6.20;100.00;101747.56;5213800;28;20022;-72
2023/03/15 09:24:11;;;;;;;6.10;3.03;;;;;;;6.33;100.00;101753.00;5213752;28;20026;-72
2023/03/15 09:26:46;;;;;;;5.55;2.58;;;;;;;6.39;100.00;101742.22;5211189;28;20468;-72
2023/03/15 09:29:17;;;;;;;6.05;2.53;;;;;;;6.47;100.00;101742.66;5213180;28;20025;-72
2023/03/15 09:31:48;;;;;;;4.82;2.78;;;;;;;6.59;100.00;101748.97;5213496;28;20109;-72
2023/03/15 09:34:19;;;;;;;8.88;3.38;;;;;;;6.53;100.00;101749.31;5214338;28;20021;-72
2023/03/15 09:36:51;;;;;;;7.93;2.83;;;;;;;6.65;100.00;101750.44;5212758;28;20041;-72
2023/03/15 09:39:32;;;;;;;6.15;2.25;;;;;;;6.88;100.00;101751.78;5213793;28;20514;-72
2023/03/15 09:42:15;;;;;;;10.18;1.85;;;;;;;6.95;100.00;101748.75;5212121;28;20034;-72
2023/03/15 09:44:50;;;;;;;9.30;2.40;;;;;;;7.21;100.00;101752.53;5212492;28;20454;-72
2023/03/15 09:47:29;;;;;;;6.68;2.95;;;;;;;7.44;100.00;101750.38;5212112;28;20025;-72
2023/03/15 09:50:15;;;;;;;5.07;2.45;;;;;;;7.26;100.00;101752.25;5212137;28;20100;-72
2023/03/15 09:53:02;;;;;;;4.63;2.30;;;;;;;7.54;100.00;101756.75;5212887;28;20041;-72
2023/03/15 09:55:33;;;;;;;7.28;2.13;;;;;;;7.57;100.00;101759.16;5212057;28;20064;-72
2023/03/15 09:58:13;;;;;;;6.60;2.40;;;;;;;7.83;100.00;101757.66;5212226;28;20061;-73
2023/03/15 10:00:52;;;;;;;9.98;2.75;;;;;;;7.85;100.00;101749.75;5212778;28;20513;-73
2023/03/15 10:03:34;;;;;;;6.13;2.28;;;;;;;8.15;100.00;101758.38;5212652;28;20064;-72
2023/03/15 10:06:26;;;;;;;8.43;2.17;;;;;;;8.44;100.00;101754.00;5212315;28;20116;-73
2023/03/15 10:09:02;;;;;;;7.88;2.28;;;;;;;8.41;96.95;101755.97;5210524;28;20018;-73
2023/03/15 10:11:39;;;;;;;8.73;1.90;;;;;;;8.57;94.12;101756.72;5212976;28;20025;-72
2023/03/15 10:14:48;;;;;;;5.95;1.70;;;;;;;8.75;100.00;101758.19;5212957;28;20145;-73
2023/03/15 10:17:53;;;;;;;5.60;1.98;;;;;;;8.60;100.00;101753.06;5210508;28;20133;-73
2023/03/15 10:20:35;;;;;;;7.55;1.60;;;;;;;8.32;90.91;101757.34;5211917;28;20030;-72
2023/03/15 10:23:19;;;;;;;7.40;1.85;;;;;;;8.29;91.65;101754.91;5214279;28;20026;-72
2023/03/15 10:25:51;;;;;;;8.77;2.22;;;;;;;8.49;94.62;101758.97;5213941;28;20030;-72
2023/03/15 10:28:26;;;;;;;7.25;1.98;;;;;;;8.61;92.67;101758.22;5216989;28;20041;-72
2023/03/15 10:31:04;;;;;;;6.32;1.50;;;;;;;8.94;86.90;101765.72;5218361;28;20025;-72
2023/03/15 10:33:37;;;;;;;6.45;1.40;;;;;;;8.97;89.07;101755.06;5217759;28;20048;-73
2023/03/15 10:36:20;;;;;;;4.80;1.60;;;;;;;9.27;79.42;101759.25;5218318;28;20038;-72
2023/03/15 10:38:52;;;;;;;6.20;1.45;;;;;;;9.22;80.93;101766.56;5216876;28;20109;-73
2023/03/15 10:41:44;;;;;;;7.72;1.35;;;;;;;9.51;82.13;101764.69;5219318;28;20121;-72
2023/03/15 10:44:24;;;;;;;9.38;1.77;;;;;;;9.39;82.62;101765.47;5218597;28;20518;-72
2023/03/15 10:47:05;;;;;;;5.55;1.35;;;;;;;9.37;78.79;101770.81;5218869;28;20068;-73
2023/03/15 10:49:39;;;;;;;4.32;1.50;;;;;;;9.18;81.53;101765.09;5218575;28;20053;-72
2023/03/15 10:52:44;;;;;;;5.70;1.98;;;;;;;9.54;80.18;101763.63;5218540;28;20026;-73
2023/03/15 10:55:24;;;;;;;5.60;1.20;;;;;;;9.47;76.72;101781.50;5217699;28;20046;-72
2023/03/15 10:58:00;;;;;;;9.40;1.90;;;;;;;9.59;72.49;101777.25;5218909;28;20037;-73
2023/03/15 11:00:35;;;;;;;4.22;1.55;;;;;;;9.60;66.29;101771.91;5218328;28;20038;-73
2023/03/15 11:03:16;;;;;;;5.70;1.40;;;;;;;9.98;69.87;101785.06;5218633;28;20118;-73
2023/03/15 11:05:50;;;;;;;3.80;1.20;;;;;;;10.05;70.21;101801.22;5218256;28;20391;-72
2023/03/15 11:08:34;;;;;;;3.83;1.38;;;;;;;10.22;69.51;101797.44;5218320;28;20489;-73
2023/03/15 11:11:06;;;;;;;6.60;1.63;;;;;;;10.06;75.72;101791.56;5217997;28;20041;-74
2023/03/15 11:13:39;;;;;;;5.85;1.90;;;;;;;9.87;76.46;101805.06;5218972;28;20390;-73
2023/03/15 11:16:13;;;;;;;3.55;1.58;;;;;;;9.86;77.03;101811.22;5218215;28;20030;-73
2023/03/15 11:18:56;;;;;;;5.93;1.55;;;;;;;9.94;78.86;101807.16;5218028;28;20038;-73
2023/03/15 11:21:33;;;;;;;5.78;1.73;;;;;;;9.69;79.99;101807.09;5216645;28;20034;-73
2023/03/15 11:24:05;;;;;;;4.80;1.38;;;;;;;9.49;69.78;101816.25;5218335;28;20493;-73
2023/03/15 11:26:39;;;;;;;5.93;1.90;;;;;;;9.48;73.22;101819.81;5218525;28;20030;-73
2023/03/15 11:29:21;;;;;;;6.25;1.60;;;;;;;9.52;72.15;101828.31;5217104;28;20034;-73
2023/03/15 11:31:53;;;;;;;6.07;1.70;;;;;;;9.30;71.77;101824.44;5217365;28;20428;-74
2023/03/15 11:34:43;;;;;;;5.07;1.58;;;;;;;9.68;74.15;101821.97;5218427;28;20030;-73
2023/03/15 11:37:52;;;;;;;4.78;1.40;;;;;;;9.99;73.74;101818.16;5217328;28;20072;-72
2023/03/15 11:40:33;;;;;;;2.88;1.10;;;;;;;10.00;67.58;101813.78;5216338;28;20057;-74
2023/03/15 11:43:26;;;;;;;3.90;1.08;;;;;;;10.20;70.39;101797.56;5216105;28;20022;-74
2023/03/15 11:46:12;;;;;;;5.30;1.48;;;;;;;10.48;64.61;101811.41;5217846;28;20157;-73
2023/03/15 11:48:49;;;;;;;5.93;1.15;;;;;;;10.38;58.94;101805.09;5217462;28;20072;-73
2023/03/15 11:51:20;;;;;;;4.50;1.30;;;;;;;10.52;64.46;101807.63;5217484;28;20025;-73
2023/03/15 11:54:11;;;;;;;3.72;1.00;;;;;;;10.71;58.26;101794.91;5218028;28;20048;-73
2023/03/15 11:56:42;;;;;;;6.00;1.17;;;;;;;10.54;60.27;101805.75;5216390;28;20061;-73